No2 Toyomaru — JD2874 — position and weather

sailwx.info

Track history (hours):
 
Tides and Currents Weather Stations Pressure Air Temp Water Temp Dewpoint Dewpoint Depression Visibility Wind Speed Wind Dir Waves Ship Positions

No2 Toyomaru

Last reported at 2017-Oct-17 06:38 UTC. Time now 2017-Oct-20 17:41 UTC.
Position N 34°54' E 139°26'.

Length 124 m; draft 6.5 m.

Type: Cargo ship. MMSI: 431000859.

Date/timePositionNaut miles runAvg speedWind from/ knotsBaromVisibWave heightAir tempDewpointWater temp
2017-Oct-17 06:38N 34°54' E 139°26'216.9
2017-Oct-17 06:31N 34°55' E 139°28'816.4
2017-Oct-17 06:01N 35°01' E 139°35'917.5
2017-Oct-17 05:30N 35°07' E 139°43'815.6
2017-Oct-17 05:00N 35°14' E 139°46'612.7
2017-Oct-17 04:30N 35°20' E 139°43'815.2
2017-Oct-17 04:00N 35°27' E 139°46'917.8
2017-Oct-17 03:30N 35°32' E 139°55'9 0.3
2017-Oct-15 23:04N 35°36' E 140°05'1 0.0
2017-Oct-14 21:38N 35°35' E 140°06'412.3
2017-Oct-14 21:16N 35°34' E 140°01'416.7
2017-Oct-14 21:00N 35°31' E 139°56'816.7
2017-Oct-14 20:30N 35°26' E 139°48'713.4
2017-Oct-14 20:00N 35°20' E 139°44'612.2
2017-Oct-14 19:30N 35°14' E 139°47'714.8
2017-Oct-14 19:00N 35°07' E 139°45'917.9
2017-Oct-14 18:30N 35°01' E 139°37'918.2
2017-Oct-14 18:00N 34°55' E 139°29'238 9.7
2017-Oct-13 17:21N 34°04' E 134°46'  
2017-Oct-10 19:21N 35°28' E 139°50'615.0
2017-Oct-10 18:59N 35°23' E 139°46'612.0
2017-Oct-10 18:30N 35°18' E 139°45'611.8
2017-Oct-10 18:00N 35°12' E 139°47'816.0
2017-Oct-10 17:30N 35°05' E 139°42'917.6
2017-Oct-10 17:00N 34°58' E 139°36'1016.7
2017-Oct-10 16:23N 34°51' E 139°26'1 1.9
2017-Oct-10 15:57N 34°52' E 139°25'  
2017-Oct-07 09:03N 34°53' E 139°25'118.0
2017-Oct-07 09:00N 34°54' E 139°26'917.1
2017-Oct-07 08:30N 34°60' E 139°34'917.3
2017-Oct-07 08:00N 35°05' E 139°41'816.4
2017-Oct-07 07:30N 35°13' E 139°46'612.1
2017-Oct-07 07:00N 35°18' E 139°44'  
Track history (hours):
 
Tides and Currents Weather Stations Pressure Air Temp Water Temp Dewpoint Dewpoint Depression Visibility Wind Speed Wind Dir Waves Ship Positions

No2 Toyomaru

Last reported at 2017-Oct-17 06:38 UTC. Time now 2017-Oct-20 17:41 UTC.
Position N 34°54' E 139°26'.

Length 124 m; draft 6.5 m.

Type: Cargo ship. MMSI: 431000859.

Date/timePositionNaut miles runAvg speedWind from/ knotsBaromVisibWave heightAir tempDewpointWater temp
2017-Oct-17 06:38N 34°54' E 139°26'216.9
2017-Oct-17 06:31N 34°55' E 139°28'816.4
2017-Oct-17 06:01N 35°01' E 139°35'917.5
2017-Oct-17 05:30N 35°07' E 139°43'815.6
2017-Oct-17 05:00N 35°14' E 139°46'612.7
2017-Oct-17 04:30N 35°20' E 139°43'815.2
2017-Oct-17 04:00N 35°27' E 139°46'917.8
2017-Oct-17 03:30N 35°32' E 139°55'9 0.3
2017-Oct-15 23:04N 35°36' E 140°05'1 0.0
2017-Oct-14 21:38N 35°35' E 140°06'412.3
2017-Oct-14 21:16N 35°34' E 140°01'416.7
2017-Oct-14 21:00N 35°31' E 139°56'816.7
2017-Oct-14 20:30N 35°26' E 139°48'713.4
2017-Oct-14 20:00N 35°20' E 139°44'612.2
2017-Oct-14 19:30N 35°14' E 139°47'714.8
2017-Oct-14 19:00N 35°07' E 139°45'917.9
2017-Oct-14 18:30N 35°01' E 139°37'918.2
2017-Oct-14 18:00N 34°55' E 139°29'238 9.7
2017-Oct-13 17:21N 34°04' E 134°46'  
2017-Oct-10 19:21N 35°28' E 139°50'615.0
2017-Oct-10 18:59N 35°23' E 139°46'612.0
2017-Oct-10 18:30N 35°18' E 139°45'611.8
2017-Oct-10 18:00N 35°12' E 139°47'816.0
2017-Oct-10 17:30N 35°05' E 139°42'917.6
2017-Oct-10 17:00N 34°58' E 139°36'1016.7
2017-Oct-10 16:23N 34°51' E 139°26'1 1.9
2017-Oct-10 15:57N 34°52' E 139°25'  
2017-Oct-07 09:03N 34°53' E 139°25'118.0
2017-Oct-07 09:00N 34°54' E 139°26'917.1
2017-Oct-07 08:30N 34°60' E 139°34'917.3
2017-Oct-07 08:00N 35°05' E 139°41'816.4
2017-Oct-07 07:30N 35°13' E 139°46'612.1
2017-Oct-07 07:00N 35°18' E 139°44'  

Dump ship's entire track history